Terminal Aerodrome Forecast
Issued by NWS

Home | Current Version | Previous Version | Graphics & Text | Print | Product List | Glossary On
Versions: 1 2 3 4 5 6 7 8 9 10 11 12 13
000
FTUS45 KGGW 241700
TAFSDY
TAF
KSDY 241730Z 2418/2518 26010KT P6SM -RA OVC014
     FM242100 26016KT 3SM -RA BR OVC008
     FM250300 29015KT P6SM VCSH OVC025
     FM251200 32011KT P6SM OVC040
      AMD LTD TO CLD VIS AND WIND=

USA.gov is the U.S. government's official web portal to all federal, state and local government web resources and services.